Time;durP1;ratioP1;P1;durP2;ratioP2;P2;SDS_P1;SDS_P2;PMS_P1;PMS_P2;Temp;Humidity;BMP_temperature;BMP_pressure;BME280_temperature;BME280_humidity;BME280_pressure;Samples;Min_cycle;Max_cycle;Signal;HPM_P1;HPM_P2
2023/08/30 00:00:23;;;;;;;10.95;7.43;;;;;;;11.48;100.00;100915.38;5287857;28;20023;-71
2023/08/30 00:02:53;;;;;;;10.90;5.85;;;;;;;11.51;100.00;100907.00;5288363;28;20480;-71
2023/08/30 00:05:24;;;;;;;42.38;6.75;;;;;;;11.55;100.00;100903.81;5287541;28;20034;-71
2023/08/30 00:07:54;;;;;;;8.35;5.20;;;;;;;11.58;100.00;100900.75;5281880;28;20366;-71
2023/08/30 00:10:25;;;;;;;8.50;5.30;;;;;;;11.61;100.00;100908.50;5281067;28;20027;-71
2023/08/30 00:12:55;;;;;;;38.78;7.93;;;;;;;11.63;100.00;100890.34;5287374;28;20491;-71
2023/08/30 00:15:26;;;;;;;9.93;6.10;;;;;;;11.68;100.00;100896.03;5283713;28;20049;-71
2023/08/30 00:17:56;;;;;;;10.38;6.38;;;;;;;11.71;100.00;100886.78;5276439;28;20034;-72
2023/08/30 00:20:27;;;;;;;13.23;7.40;;;;;;;11.77;100.00;100891.47;5287659;28;20029;-72
2023/08/30 00:22:57;;;;;;;9.00;5.40;;;;;;;11.81;100.00;100884.75;5287677;28;20373;-71
2023/08/30 00:25:28;;;;;;;10.13;5.80;;;;;;;11.83;100.00;100882.75;5286637;28;20039;-72
2023/08/30 00:27:58;;;;;;;11.27;6.15;;;;;;;11.88;100.00;100874.16;5285951;28;20019;-72
2023/08/30 00:30:29;;;;;;;11.40;6.03;;;;;;;11.94;100.00;100878.84;5287556;28;20039;-72
2023/08/30 00:32:59;;;;;;;12.13;7.60;;;;;;;11.96;100.00;100876.84;5287116;28;20076;-72
2023/08/30 00:35:29;;;;;;;14.27;7.03;;;;;;;12.00;100.00;100874.59;5287076;28;20027;-72
2023/08/30 00:38:00;;;;;;;14.20;6.93;;;;;;;12.01;100.00;100870.94;5285851;28;20024;-72
2023/08/30 00:40:38;;;;;;;16.02;8.70;;;;;;;12.03;100.00;100867.03;5287242;28;20438;-72
2023/08/30 00:43:09;;;;;;;15.57;8.40;;;;;;;12.08;100.00;100861.97;5287145;28;20020;-72
2023/08/30 00:45:40;;;;;;;12.23;7.63;;;;;;;12.14;100.00;100861.25;5284763;28;20032;-72
2023/08/30 00:48:11;;;;;;;12.80;7.63;;;;;;;12.21;100.00;100860.59;5286642;28;20392;-72
2023/08/30 00:50:42;;;;;;;15.40;8.32;;;;;;;12.24;100.00;100855.66;5286314;28;20034;-72
2023/08/30 00:53:13;;;;;;;18.23;8.10;;;;;;;12.24;100.00;100847.59;5286997;28;20385;-72
2023/08/30 00:55:44;;;;;;;20.50;8.35;;;;;;;12.22;100.00;100846.94;5285344;28;20027;-72
2023/08/30 00:58:14;;;;;;;17.52;9.27;;;;;;;12.23;100.00;100842.41;5277102;28;20043;-72
2023/08/30 01:00:47;;;;;;;15.00;8.07;;;;;;;12.22;100.00;100832.66;5282182;28;20451;-72
2023/08/30 01:03:17;;;;;;;18.58;7.97;;;;;;;12.19;100.00;100840.06;5286567;28;20047;-72
2023/08/30 01:05:48;;;;;;;13.88;8.10;;;;;;;12.13;100.00;100827.31;5285737;28;20023;-72
2023/08/30 01:08:19;;;;;;;13.93;8.18;;;;;;;12.09;100.00;100831.38;5278073;28;20028;-72
2023/08/30 01:11:08;;;;;;;14.60;8.45;;;;;;;12.08;100.00;100829.69;5285562;28;20028;-72
2023/08/30 01:13:52;;;;;;;13.57;8.40;;;;;;;12.02;100.00;100830.41;5286110;28;20435;-72
2023/08/30 01:16:41;;;;;;;21.75;8.88;;;;;;;11.99;100.00;100829.91;5284703;28;20068;-72
2023/08/30 01:19:17;;;;;;;15.27;8.25;;;;;;;11.92;100.00;100830.63;5286308;28;20026;-72
2023/08/30 01:21:55;;;;;;;15.30;8.43;;;;;;;11.89;100.00;100835.50;5271962;28;20042;-72
2023/08/30 01:24:37;;;;;;;15.25;8.57;;;;;;;11.91;100.00;100830.81;5285965;28;20442;-72
2023/08/30 01:27:25;;;;;;;11.93;7.30;;;;;;;11.89;100.00;100828.28;5284448;28;20451;-71
2023/08/30 01:33:03;;;;;;;11.63;6.35;;;;;;;11.96;100.00;100822.22;5201271;28;20088;-73
2023/08/30 01:35:56;;;;;;;12.23;6.10;;;;;;;11.98;100.00;100831.78;5188738;28;20098;-73
2023/08/30 01:38:28;;;;;;;9.30;6.50;;;;;;;11.99;100.00;100825.38;5203373;28;20044;-73
2023/08/30 01:40:59;;;;;;;13.10;7.07;;;;;;;12.03;100.00;100828.56;5186376;28;20028;-73
2023/08/30 01:43:32;;;;;;;13.23;8.50;;;;;;;12.05;100.00;100834.59;5203761;28;20045;-73
2023/08/30 01:46:04;;;;;;;21.60;10.18;;;;;;;12.10;100.00;100838.44;5203052;28;20028;-73
2023/08/30 01:48:35;;;;;;;23.65;11.52;;;;;;;12.18;100.00;100832.16;5203535;28;20021;-73
2023/08/30 01:51:07;;;;;;;19.50;11.40;;;;;;;12.26;100.00;100828.63;5203206;28;20033;-73
2023/08/30 01:53:38;;;;;;;18.63;11.18;;;;;;;12.31;100.00;100823.53;5203846;28;20057;-73
2023/08/30 01:56:09;;;;;;;20.55;11.80;;;;;;;12.34;100.00;100817.78;5202916;28;20029;-73
2023/08/30 01:58:39;;;;;;;21.05;10.55;;;;;;;12.33;100.00;100821.50;5191294;28;20402;-73
2023/08/30 02:01:10;;;;;;;15.32;9.20;;;;;;;12.32;100.00;100820.66;5202270;28;20452;-73
2023/08/30 02:03:45;;;;;;;14.88;9.68;;;;;;;12.32;100.00;100822.50;5203079;28;20037;-73
2023/08/30 02:06:23;;;;;;;18.20;10.75;;;;;;;12.31;100.00;100820.84;5202909;28;20028;-73
2023/08/30 02:08:59;;;;;;;18.00;9.70;;;;;;;12.31;100.00;100819.00;5203217;28;20116;-73
2023/08/30 02:11:32;;;;;;;17.50;10.43;;;;;;;12.34;100.00;100818.63;5203346;28;20370;-73
2023/08/30 02:14:08;;;;;;;18.33;9.10;;;;;;;12.36;100.00;100818.47;5202846;28;20085;-73
2023/08/30 02:16:41;;;;;;;18.42;10.15;;;;;;;12.42;100.00;100815.03;5202971;28;20406;-73
2023/08/30 02:19:16;;;;;;;20.42;10.45;;;;;;;12.50;100.00;100811.44;5203292;28;20079;-73
2023/08/30 02:21:48;;;;;;;18.80;9.52;;;;;;;12.58;100.00;100814.09;5203237;28;20025;-73
2023/08/30 02:24:18;;;;;;;19.65;9.95;;;;;;;12.68;100.00;100814.66;5185618;28;20531;-73
2023/08/30 02:26:49;;;;;;;15.35;10.10;;;;;;;12.70;100.00;100810.78;5202477;28;20074;-73
2023/08/30 02:29:19;;;;;;;17.38;9.88;;;;;;;12.72;100.00;100807.91;5203197;28;20053;-73
2023/08/30 02:31:50;;;;;;;18.48;9.15;;;;;;;12.76;100.00;100803.84;5203086;28;20075;-73
2023/08/30 02:34:20;;;;;;;16.20;10.00;;;;;;;12.82;100.00;100810.34;5203117;28;20085;-73
2023/08/30 02:36:51;;;;;;;14.55;8.73;;;;;;;12.87;100.00;100813.34;5202095;28;20057;-73
2023/08/30 02:39:21;;;;;;;16.17;8.60;;;;;;;12.90;100.00;100808.44;5185233;28;20477;-73
2023/08/30 02:41:52;;;;;;;16.90;9.70;;;;;;;12.96;100.00;100798.78;5203181;28;20021;-73
2023/08/30 02:44:22;;;;;;;19.80;8.95;;;;;;;12.99;100.00;100800.25;5203182;28;20108;-73
2023/08/30 02:46:53;;;;;;;19.45;9.65;;;;;;;13.00;100.00;100797.38;5202434;28;20474;-73
2023/08/30 02:49:23;;;;;;;20.50;9.95;;;;;;;13.02;100.00;100800.75;5202566;28;20083;-74
2023/08/30 02:51:54;;;;;;;21.85;8.00;;;;;;;13.04;100.00;100796.00;5203016;28;20024;-73
2023/08/30 02:54:24;;;;;;;16.27;8.70;;;;;;;13.06;100.00;100795.84;5202853;28;20410;-73
2023/08/30 02:56:55;;;;;;;14.57;8.63;;;;;;;13.08;100.00;100796.47;5202107;28;20034;-73
2023/08/30 02:59:25;;;;;;;17.20;8.80;;;;;;;13.10;100.00;100792.59;5202860;28;20029;-73
2023/08/30 03:01:56;;;;;;;17.60;8.82;;;;;;;13.13;100.00;100794.06;5201308;28;20025;-73
2023/08/30 03:04:27;;;;;;;17.60;8.07;;;;;;;13.14;100.00;100788.50;5202634;28;20025;-73
2023/08/30 03:06:57;;;;;;;17.75;8.98;;;;;;;13.15;100.00;100781.25;5202020;28;20059;-73
2023/08/30 03:09:28;;;;;;;15.30;8.85;;;;;;;13.19;100.00;100783.38;5181117;28;20112;-73
2023/08/30 03:11:58;;;;;;;14.43;8.65;;;;;;;13.20;100.00;100781.53;5200979;28;20021;-73
2023/08/30 03:14:29;;;;;;;18.33;9.23;;;;;;;13.20;100.00;100776.13;5206251;28;20409;-73
2023/08/30 03:16:59;;;;;;;17.67;8.77;;;;;;;13.20;100.00;100781.53;5205663;28;20108;-73
2023/08/30 03:19:30;;;;;;;15.25;8.50;;;;;;;13.23;100.00;100770.41;5206679;28;20040;-73
2023/08/30 03:22:00;;;;;;;14.95;9.10;;;;;;;13.23;100.00;100764.19;5203257;28;20502;-73
2023/08/30 03:24:31;;;;;;;16.90;9.30;;;;;;;13.24;100.00;100760.47;5195195;28;20078;-73
2023/08/30 03:27:01;;;;;;;14.52;9.52;;;;;;;13.23;100.00;100759.66;5191977;28;20033;-73
2023/08/30 03:29:32;;;;;;;14.75;9.48;;;;;;;13.25;100.00;100754.06;5194642;28;20054;-73
2023/08/30 03:32:02;;;;;;;17.63;8.50;;;;;;;13.26;100.00;100753.06;5198477;28;20029;-73
2023/08/30 03:34:33;;;;;;;19.08;9.40;;;;;;;13.26;100.00;100740.44;5198850;28;20156;-73
2023/08/30 03:37:03;;;;;;;23.52;9.93;;;;;;;13.25;100.00;100735.22;5191943;28;20085;-73
2023/08/30 03:39:34;;;;;;;17.55;9.63;;;;;;;13.30;100.00;100730.09;5192644;28;20040;-73
2023/08/30 03:42:05;;;;;;;17.30;9.85;;;;;;;13.30;100.00;100724.72;5196269;28;20042;-73
2023/08/30 03:44:37;;;;;;;26.98;10.15;;;;;;;13.29;100.00;100717.66;5197681;28;20094;-73
2023/08/30 03:47:08;;;;;;;16.95;10.48;;;;;;;13.30;100.00;100720.16;5194366;28;20381;-73
2023/08/30 03:49:38;;;;;;;17.17;8.90;;;;;;;13.32;100.00;100720.81;5192273;28;20029;-73
2023/08/30 03:52:09;;;;;;;18.65;9.93;;;;;;;13.34;100.00;100716.06;5194480;28;20464;-73
2023/08/30 03:54:39;;;;;;;19.00;10.32;;;;;;;13.34;100.00;100720.63;5180967;28;20038;-73
2023/08/30 03:57:10;;;;;;;17.25;10.80;;;;;;;13.33;100.00;100710.88;5196974;28;20022;-73
2023/08/30 03:59:40;;;;;;;22.73;10.35;;;;;;;13.37;100.00;100709.47;5205856;28;20033;-73
2023/08/30 04:02:11;;;;;;;21.27;10.60;;;;;;;13.40;100.00;100701.00;5205156;28;20028;-73
2023/08/30 04:04:41;;;;;;;16.77;9.77;;;;;;;13.42;100.00;100699.81;5205620;28;20527;-73
2023/08/30 04:07:12;;;;;;;22.05;11.23;;;;;;;13.45;100.00;100703.97;5204707;28;20029;-73
2023/08/30 04:09:42;;;;;;;20.20;10.60;;;;;;;13.45;100.00;100687.78;5205493;28;20017;-73
2023/08/30 04:12:13;;;;;;;22.98;11.18;;;;;;;13.46;100.00;100692.19;5187686;28;20144;-73
2023/08/30 04:14:43;;;;;;;22.30;11.65;;;;;;;13.47;100.00;100697.38;5205103;28;20403;-74
2023/08/30 04:17:14;;;;;;;24.13;10.55;;;;;;;13.51;100.00;100697.84;5186960;28;20068;-72
2023/08/30 04:19:44;;;;;;;30.67;12.13;;;;;;;13.51;100.00;100695.16;5205220;28;20480;-73
2023/08/30 04:22:14;;;;;;;22.58;11.32;;;;;;;13.51;100.00;100689.75;5187405;28;20021;-73
2023/08/30 04:24:46;;;;;;;30.10;12.07;;;;;;;13.55;100.00;100682.94;5205368;28;20049;-73
2023/08/30 04:27:17;;;;;;;21.13;10.93;;;;;;;13.60;100.00;100685.06;5204084;28;20034;-73
2023/08/30 04:29:47;;;;;;;24.95;11.15;;;;;;;13.63;100.00;100684.69;5204972;28;20033;-73
2023/08/30 04:32:18;;;;;;;22.73;10.75;;;;;;;13.62;100.00;100688.44;5187261;28;20037;-73
2023/08/30 04:34:48;;;;;;;26.48;11.38;;;;;;;13.62;100.00;100683.03;5204925;28;20508;-73
2023/08/30 04:37:19;;;;;;;35.28;11.38;;;;;;;13.64;100.00;100683.66;5204209;28;20397;-73
2023/08/30 04:39:49;;;;;;;21.55;10.35;;;;;;;13.61;100.00;100674.13;5204611;28;20033;-73
2023/08/30 04:42:20;;;;;;;19.65;10.50;;;;;;;13.64;100.00;100675.59;5184605;28;20128;-73
2023/08/30 04:44:52;;;;;;;25.75;11.50;;;;;;;13.62;100.00;100667.69;5203857;28;20030;-73
2023/08/30 04:47:22;;;;;;;23.27;10.50;;;;;;;13.60;100.00;100664.34;5202294;28;20647;-73
2023/08/30 04:49:53;;;;;;;27.10;11.00;;;;;;;13.61;100.00;100660.66;5203823;28;20067;-73
2023/08/30 04:52:24;;;;;;;21.98;11.00;;;;;;;13.62;100.00;100659.63;5203371;28;20025;-73
2023/08/30 04:54:54;;;;;;;23.70;10.40;;;;;;;13.63;100.00;100655.88;5204370;28;20026;-73
2023/08/30 04:57:25;;;;;;;20.90;9.75;;;;;;;13.66;100.00;100668.16;5203459;28;20022;-73
2023/08/30 04:59:57;;;;;;;20.40;9.95;;;;;;;13.67;100.00;100657.19;5204513;28;20025;-73
2023/08/30 05:02:27;;;;;;;21.95;11.27;;;;;;;13.67;100.00;100659.03;5204126;28;20355;-73
2023/08/30 05:04:58;;;;;;;20.80;10.05;;;;;;;13.73;100.00;100660.97;5204323;28;20025;-73
2023/08/30 05:07:28;;;;;;;24.25;10.80;;;;;;;13.76;100.00;100651.69;5203598;28;20478;-73
2023/08/30 05:09:59;;;;;;;34.03;10.63;;;;;;;13.81;100.00;100654.63;5186711;28;20035;-74
2023/08/30 05:12:30;;;;;;;26.65;10.82;;;;;;;13.83;100.00;100649.88;5204037;28;20022;-74
2023/08/30 05:15:00;;;;;;;21.98;9.32;;;;;;;13.84;100.00;100655.06;5203931;28;20025;-74
2023/08/30 05:17:31;;;;;;;19.90;10.32;;;;;;;13.89;100.00;100657.19;5203388;28;20389;-74
2023/08/30 05:20:02;;;;;;;19.00;9.82;;;;;;;13.88;100.00;100653.66;5204183;28;20056;-73
2023/08/30 05:22:33;;;;;;;20.60;9.50;;;;;;;13.90;100.00;100653.44;5204157;28;20371;-73
2023/08/30 05:25:04;;;;;;;21.23;8.70;;;;;;;13.94;100.00;100650.19;5204040;28;20022;-73
2023/08/30 05:27:34;;;;;;;20.33;9.35;;;;;;;13.99;100.00;100639.66;5202970;28;20416;-73
2023/08/30 05:30:05;;;;;;;21.77;8.38;;;;;;;14.00;100.00;100643.19;5186414;28;20045;-74
2023/08/30 05:32:39;;;;;;;18.90;9.20;;;;;;;13.93;100.00;100653.09;5203172;28;20079;-75
2023/08/30 05:35:10;;;;;;;22.15;7.78;;;;;;;13.93;100.00;100651.22;5203728;28;20061;-74
2023/08/30 05:37:40;;;;;;;21.30;8.80;;;;;;;13.96;100.00;100655.41;5203639;28;20281;-75
2023/08/30 05:40:15;;;;;;;22.27;8.98;;;;;;;13.90;100.00;100648.88;5203651;28;20063;-75
2023/08/30 05:42:45;;;;;;;22.77;7.95;;;;;;;13.87;100.00;100641.22;5203736;28;20029;-76
2023/08/30 05:45:18;;;;;;;26.08;9.13;;;;;;;13.86;100.00;100636.84;5203586;28;20505;-76
2023/08/30 05:47:48;;;;;;;24.00;8.90;;;;;;;13.80;100.00;100634.91;5185296;28;20025;-76
2023/08/30 05:50:19;;;;;;;24.00;9.27;;;;;;;13.78;100.00;100630.75;5203550;28;20036;-75
2023/08/30 05:52:51;;;;;;;24.23;10.32;;;;;;;13.74;100.00;100625.72;5202974;28;20029;-76
2023/08/30 05:55:21;;;;;;;25.92;9.60;;;;;;;13.72;100.00;100622.41;5203526;28;20056;-75
2023/08/30 05:57:52;;;;;;;22.17;9.15;;;;;;;13.70;100.00;100615.50;5185046;28;20029;-75
2023/08/30 06:00:23;;;;;;;25.30;12.05;;;;;;;13.74;100.00;100617.63;5203782;28;20025;-74
2023/08/30 06:02:53;;;;;;;21.98;9.82;;;;;;;13.71;100.00;100612.66;5202364;28;20505;-75
2023/08/30 06:05:24;;;;;;;22.63;10.13;;;;;;;13.71;100.00;100618.03;5203307;28;20028;-74
2023/08/30 06:07:54;;;;;;;19.45;9.73;;;;;;;13.72;100.00;100619.69;5201887;28;20017;-74
2023/08/30 06:10:25;;;;;;;19.05;8.75;;;;;;;13.72;100.00;100625.09;5203286;28;20036;-75
2023/08/30 06:12:55;;;;;;;20.02;8.98;;;;;;;13.74;100.00;100614.09;5185795;28;20018;-74
2023/08/30 06:15:26;;;;;;;21.27;8.35;;;;;;;13.77;100.00;100607.50;5185517;28;20044;-73
2023/08/30 06:17:58;;;;;;;19.05;8.55;;;;;;;13.81;100.00;100616.88;5203560;28;20080;-74
2023/08/30 06:20:28;;;;;;;19.73;8.55;;;;;;;13.83;100.00;100604.03;5203518;28;20064;-75
2023/08/30 06:23:02;;;;;;;19.52;9.00;;;;;;;13.83;100.00;100604.03;5203403;28;20025;-74
2023/08/30 06:25:33;;;;;;;18.10;8.15;;;;;;;13.88;100.00;100590.81;5203239;28;20033;-73
2023/08/30 06:28:04;;;;;;;17.90;7.40;;;;;;;13.89;100.00;100587.91;5202581;28;20018;-74
2023/08/30 06:30:34;;;;;;;20.20;7.13;;;;;;;13.99;100.00;100582.19;5203392;28;20101;-73
2023/08/30 06:33:05;;;;;;;12.55;6.47;;;;;;;14.09;100.00;100587.25;5185642;28;20018;-74
2023/08/30 06:35:39;;;;;;;12.93;6.40;;;;;;;14.06;100.00;100585.78;5185513;28;20370;-74
2023/08/30 06:38:09;;;;;;;14.95;7.28;;;;;;;14.12;100.00;100589.56;5203009;28;20018;-74
2023/08/30 06:40:44;;;;;;;13.50;6.70;;;;;;;14.22;100.00;100595.44;5202723;28;20036;-74
2023/08/30 06:43:15;;;;;;;15.38;6.00;;;;;;;14.17;100.00;100585.25;5187973;28;20032;-75
2023/08/30 06:45:46;;;;;;;18.77;7.53;;;;;;;14.20;100.00;100587.53;5206949;28;20017;-75
2023/08/30 06:48:16;;;;;;;10.93;6.55;;;;;;;14.18;100.00;100588.78;5205932;28;20071;-75
2023/08/30 06:50:47;;;;;;;11.32;6.53;;;;;;;14.22;100.00;100590.88;5189555;28;20028;-75
2023/08/30 06:53:18;;;;;;;20.48;7.28;;;;;;;14.19;100.00;100588.56;5205852;28;20436;-75
2023/08/30 06:55:57;;;;;;;11.90;7.60;;;;;;;14.19;100.00;100583.16;5206530;28;20067;-75
2023/08/30 06:58:28;;;;;;;13.50;7.50;;;;;;;14.28;100.00;100586.56;5196521;28;20033;-75
2023/08/30 07:00:58;;;;;;;12.02;6.97;;;;;;;14.29;100.00;100590.09;5204337;28;20460;-76
2023/08/30 07:03:29;;;;;;;13.40;6.28;;;;;;;14.19;100.00;100590.44;5206631;28;20397;-76
2023/08/30 07:06:00;;;;;;;13.45;6.53;;;;;;;14.16;100.00;100590.84;5188570;28;20044;-75
2023/08/30 07:08:30;;;;;;;20.83;6.65;;;;;;;14.15;100.00;100584.59;5206980;28;20111;-75
2023/08/30 07:11:00;;;;;;;13.85;6.65;;;;;;;14.11;100.00;100583.34;5205401;28;20037;-75
2023/08/30 07:13:31;;;;;;;16.25;7.10;;;;;;;14.19;100.00;100588.56;5206565;28;20064;-75
2023/08/30 07:16:01;;;;;;;13.65;7.03;;;;;;;14.19;100.00;100593.13;5205992;28;20030;-74
2023/08/30 07:18:32;;;;;;;13.10;6.88;;;;;;;14.15;100.00;100592.69;5206775;28;20451;-74
2023/08/30 07:21:03;;;;;;;14.45;6.63;;;;;;;14.19;100.00;100598.53;5206747;28;20051;-75
2023/08/30 07:23:33;;;;;;;13.15;7.25;;;;;;;14.23;100.00;100606.03;5188919;28;20017;-75
2023/08/30 07:26:04;;;;;;;13.15;7.15;;;;;;;14.23;100.00;100600.63;5206041;28;20084;-75
2023/08/30 07:28:35;;;;;;;13.02;7.00;;;;;;;14.29;100.00;100606.28;5204872;28;20018;-74
2023/08/30 07:31:05;;;;;;;13.88;7.80;;;;;;;14.30;100.00;100599.84;5206459;28;20029;-74
2023/08/30 07:33:36;;;;;;;14.88;6.60;;;;;;;14.38;100.00;100599.72;5206360;28;20100;-76
2023/08/30 07:36:08;;;;;;;21.08;7.10;;;;;;;14.42;100.00;100607.22;5206289;28;20441;-74
2023/08/30 07:38:38;;;;;;;13.80;7.85;;;;;;;14.55;100.00;100602.94;5206095;28;20025;-75
2023/08/30 07:41:09;;;;;;;13.20;7.10;;;;;;;14.55;100.00;100589.47;5205981;28;20033;-74
2023/08/30 07:43:40;;;;;;;18.45;6.90;;;;;;;14.61;100.00;100599.44;5206396;28;20029;-75
2023/08/30 07:46:10;;;;;;;15.95;8.05;;;;;;;14.66;100.00;100591.59;5205675;28;20029;-77
2023/08/30 07:48:41;;;;;;;11.02;6.75;;;;;;;14.67;100.00;100593.28;5188536;28;20028;-75
2023/08/30 07:51:11;;;;;;;11.13;6.55;;;;;;;14.57;100.00;100596.34;5205773;28;20460;-75
2023/08/30 07:53:42;;;;;;;13.50;6.20;;;;;;;14.58;100.00;100603.41;5205390;28;20068;-75
2023/08/30 07:56:12;;;;;;;10.15;5.88;;;;;;;14.59;100.00;100607.75;5205120;28;20030;-75
2023/08/30 07:58:43;;;;;;;14.55;7.03;;;;;;;14.62;100.00;100607.38;5204644;28;20029;-75
2023/08/30 08:01:13;;;;;;;13.82;7.47;;;;;;;14.69;100.00;100600.13;5205845;28;20026;-76
2023/08/30 08:03:44;;;;;;;14.45;6.90;;;;;;;14.75;100.00;100599.34;5205584;28;20021;-76
2023/08/30 08:06:14;;;;;;;13.38;6.30;;;;;;;14.83;100.00;100609.16;5205343;28;20029;-76
2023/08/30 08:08:45;;;;;;;13.50;6.10;;;;;;;14.91;100.00;100609.00;5205288;28;20036;-76
2023/08/30 08:11:15;;;;;;;9.40;5.45;;;;;;;14.87;100.00;100607.72;5205596;28;20025;-76
2023/08/30 08:13:45;;;;;;;8.15;5.18;;;;;;;14.90;100.00;100604.59;5205562;28;20047;-76
2023/08/30 08:16:16;;;;;;;12.32;5.70;;;;;;;14.91;100.00;100609.00;5204947;28;20055;-74
2023/08/30 08:18:47;;;;;;;7.95;4.88;;;;;;;14.96;100.00;100601.13;5204147;28;20036;-76
2023/08/30 08:21:18;;;;;;;10.63;5.30;;;;;;;15.05;100.00;100601.75;5205698;28;20032;-75
2023/08/30 08:23:49;;;;;;;9.52;5.45;;;;;;;15.15;100.00;100598.69;5205345;28;20112;-76
2023/08/30 08:26:19;;;;;;;8.40;5.53;;;;;;;15.18;100.00;100599.13;5205215;28;20084;-76
2023/08/30 08:28:50;;;;;;;9.48;5.38;;;;;;;15.21;100.00;100597.88;5204948;28;20424;-76
2023/08/30 08:31:21;;;;;;;10.13;5.72;;;;;;;15.29;100.00;100601.22;5205136;28;20113;-73
2023/08/30 08:34:11;;;;;;;11.25;5.88;;;;;;;15.41;100.00;100606.91;5204345;28;20037;-76
2023/08/30 08:36:42;;;;;;;7.43;4.65;;;;;;;15.45;100.00;100612.72;5187068;28;20501;-76
2023/08/30 08:39:14;;;;;;;8.77;5.78;;;;;;;15.47;100.00;100607.97;5204679;28;20033;-73
2023/08/30 08:41:45;;;;;;;8.45;5.35;;;;;;;15.76;100.00;100613.03;5187636;28;20068;-75
2023/08/30 08:44:16;;;;;;;10.63;5.38;;;;;;;16.05;100.00;100606.38;5205199;28;20025;-75
2023/08/30 08:46:48;;;;;;;11.90;5.85;;;;;;;16.33;100.00;100613.47;5204384;28;21141;-74
2023/08/30 08:49:18;;;;;;;7.90;4.85;;;;;;;16.33;100.00;100608.06;5204872;28;20025;-75
2023/08/30 08:51:49;;;;;;;6.55;4.65;;;;;;;16.34;100.00;100608.88;5203388;28;20033;-75
2023/08/30 08:54:20;;;;;;;10.80;5.07;;;;;;;16.32;100.00;100611.81;5204575;28;20486;-74
2023/08/30 08:56:50;;;;;;;6.72;4.50;;;;;;;16.42;100.00;100608.69;5204574;28;20163;-74
2023/08/30 08:59:21;;;;;;;10.50;5.07;;;;;;;16.46;100.00;100608.00;5187234;28;20537;-74
2023/08/30 09:01:52;;;;;;;8.60;4.93;;;;;;;16.46;100.00;100609.91;5204698;28;20092;-74
2023/08/30 09:04:24;;;;;;;9.75;5.53;;;;;;;16.70;100.00;100602.97;5204113;28;20025;-74
2023/08/30 09:06:54;;;;;;;8.88;5.10;;;;;;;16.90;100.00;100601.06;5203081;28;20029;-75
2023/08/30 09:09:25;;;;;;;10.52;4.85;;;;;;;17.01;100.00;100605.00;5204143;28;20033;-74
2023/08/30 09:11:56;;;;;;;8.27;4.72;;;;;;;16.96;100.00;100610.22;5204347;28;20017;-73
2023/08/30 09:14:27;;;;;;;10.55;4.70;;;;;;;16.94;100.00;100606.91;5187022;28;20029;-74
2023/08/30 09:17:00;;;;;;;9.45;5.03;;;;;;;16.77;100.00;100601.97;5201891;28;20038;-73
2023/08/30 09:19:30;;;;;;;7.15;4.43;;;;;;;16.74;100.00;100598.84;5186939;28;20025;-74
2023/08/30 09:22:01;;;;;;;11.60;5.30;;;;;;;16.72;100.00;100601.78;5186525;28;20032;-73
2023/08/30 09:24:40;;;;;;;9.57;5.35;;;;;;;16.79;100.00;100608.00;5186803;28;20527;-74
2023/08/30 09:27:18;;;;;;;7.63;4.60;;;;;;;16.66;100.00;100607.97;5288918;27;20382;-71
2023/08/30 09:29:48;;;;;;;7.90;5.68;;;;;;;16.80;100.00;100606.09;5297409;28;20433;-71
2023/08/30 09:32:22;;;;;;;10.25;5.53;;;;;;;16.86;100.00;100602.53;5295321;27;20027;-72
2023/08/30 09:34:52;;;;;;;12.85;6.35;;;;;;;17.18;100.00;100614.31;5296303;28;20488;-71
2023/08/30 09:37:23;;;;;;;12.57;6.28;;;;;;;17.40;100.00;100605.88;5289961;28;20015;-71
2023/08/30 09:39:53;;;;;;;8.23;5.45;;;;;;;17.77;100.00;100609.63;5289139;27;20626;-73
2023/08/30 09:42:24;;;;;;;10.35;5.55;;;;;;;17.82;100.00;100591.66;5223121;22;20061;-75
2023/08/30 09:44:56;;;;;;;11.70;5.43;;;;;;;17.94;100.00;100602.63;5176316;28;20198;-75
2023/08/30 09:47:27;;;;;;;8.55;4.72;;;;;;;17.99;100.00;100599.25;5185278;28;20033;-74
2023/08/30 09:50:00;;;;;;;8.55;5.40;;;;;;;18.10;100.00;100603.97;5166127;28;20037;-75
2023/08/30 09:52:32;;;;;;;10.65;5.65;;;;;;;17.91;100.00;100597.63;5166431;28;20483;-75
2023/08/30 09:55:04;;;;;;;10.82;5.18;;;;;;;18.04;100.00;100602.97;5169490;28;20121;-75
2023/08/30 09:57:35;;;;;;;9.20;6.18;;;;;;;18.23;100.00;100592.16;5170600;28;20018;-75
2023/08/30 10:00:07;;;;;;;11.20;5.85;;;;;;;18.47;100.00;100596.72;5170140;28;20037;-75
2023/08/30 10:02:41;;;;;;;8.73;5.35;;;;;;;18.48;100.00;100603.84;5177619;28;20036;-75
2023/08/30 10:05:12;;;;;;;9.80;5.80;;;;;;;18.42;100.00;100606.59;5178985;28;20030;-74
2023/08/30 10:07:44;;;;;;;11.15;6.60;;;;;;;18.25;100.00;100600.91;5178372;28;20394;-74
2023/08/30 10:10:15;;;;;;;10.52;5.90;;;;;;;18.25;100.00;100590.06;5178895;28;20165;-75
2023/08/30 10:12:46;;;;;;;11.85;6.68;;;;;;;18.21;100.00;100600.50;5179222;28;20668;-75
2023/08/30 10:15:21;;;;;;;11.38;6.55;;;;;;;18.28;100.00;100590.44;5178309;28;20022;-74
2023/08/30 10:17:54;;;;;;;10.20;6.43;;;;;;;18.30;100.00;100591.03;5178308;28;20041;-75
2023/08/30 10:20:27;;;;;;;10.20;6.10;;;;;;;18.30;100.00;100596.47;5178823;28;20097;-75
2023/08/30 10:22:58;;;;;;;9.88;6.18;;;;;;;18.25;100.00;100595.47;5178733;28;20038;-75
2023/08/30 10:25:32;;;;;;;13.48;6.43;;;;;;;18.27;100.00;100587.94;5178197;28;20026;-75
2023/08/30 10:28:03;;;;;;;13.00;6.60;;;;;;;18.43;100.00;100589.28;5176461;28;20034;-75
2023/08/30 10:30:33;;;;;;;11.48;6.53;;;;;;;18.44;100.00;100590.91;5178775;28;20053;-75
2023/08/30 10:33:13;;;;;;;9.40;6.10;;;;;;;18.55;100.00;100587.47;5178806;28;20026;-74
2023/08/30 10:35:49;;;;;;;13.45;6.38;;;;;;;18.52;100.00;100590.63;5177092;28;20018;-74
2023/08/30 10:38:27;;;;;;;14.95;6.57;;;;;;;18.45;100.00;100593.41;5166489;28;20030;-74
2023/08/30 10:41:06;;;;;;;11.63;6.70;;;;;;;18.46;100.00;100596.94;5164845;28;20026;-74
2023/08/30 10:43:37;;;;;;;12.30;7.03;;;;;;;18.40;100.00;100590.53;5152763;28;20053;-75
2023/08/30 10:46:11;;;;;;;11.25;6.53;;;;;;;18.36;100.00;100592.03;5164004;28;20023;-75
2023/08/30 10:48:42;;;;;;;15.10;7.35;;;;;;;18.26;100.00;100591.72;5164477;28;20036;-75
2023/08/30 10:51:22;;;;;;;12.30;6.65;;;;;;;18.27;100.00;100598.78;5164675;28;20549;-75
2023/08/30 10:53:57;;;;;;;13.00;7.25;;;;;;;18.19;100.00;100594.50;5163537;28;20071;-75
2023/08/30 10:56:30;;;;;;;14.13;7.18;;;;;;;18.12;100.00;100596.41;5162764;28;20104;-74
2023/08/30 10:59:02;;;;;;;12.13;7.55;;;;;;;18.17;100.00;100593.03;5163890;28;20368;-75
2023/08/30 11:01:34;;;;;;;17.08;7.55;;;;;;;18.31;100.00;100592.69;5154690;28;20057;-74
2023/08/30 11:04:06;;;;;;;14.52;7.72;;;;;;;18.47;100.00;100591.28;5167413;28;20034;-74
2023/08/30 11:06:38;;;;;;;14.13;6.53;;;;;;;18.53;100.00;100590.41;5163140;28;20026;-74
2023/08/30 11:09:09;;;;;;;13.40;6.68;;;;;;;18.53;100.00;100592.31;5163053;28;20026;-75
2023/08/30 11:11:39;;;;;;;11.43;6.45;;;;;;;18.67;100.00;100577.50;5163768;28;20018;-75
2023/08/30 11:14:10;;;;;;;11.20;6.93;;;;;;;18.57;100.00;100585.34;5142990;28;20399;-74
2023/08/30 11:16:41;;;;;;;13.18;6.32;;;;;;;18.52;100.00;100583.28;5163002;28;20026;-74
2023/08/30 11:19:12;;;;;;;14.45;6.50;;;;;;;18.74;100.00;100578.31;5163236;28;20022;-74
2023/08/30 11:21:44;;;;;;;13.82;6.85;;;;;;;18.96;100.00;100577.81;5163065;28;20149;-74
2023/08/30 11:24:15;;;;;;;12.20;6.30;;;;;;;19.00;100.00;100582.59;5163409;28;20022;-75
2023/08/30 11:26:46;;;;;;;12.30;6.20;;;;;;;18.99;100.00;100586.38;5162915;28;20030;-74
2023/08/30 11:29:16;;;;;;;11.75;6.32;;;;;;;18.92;100.00;100582.06;5163076;28;20530;-74
2023/08/30 11:31:47;;;;;;;13.35;6.63;;;;;;;18.70;100.00;100582.50;5163065;28;20505;-74